Lær å fly hos oss!

Oslo Flyveklubb har i mange år utdannet flygere til privatflygersetifikat PPL(A). Skolen har godkjenning for å drive utdanning til teoriundervisning til PPL(A), privatflygersertifikat PPL (A) og mørkeflyging.

Gi bort en flytur i gave

På en introduksjonstur vil kandidaten være med på forberedelser til, og gjennomføring av en flytur på en times varighet med en av våre instruktører.

Hvor vi holder til?

Flyplassen ligger i Lillestrøm 10 minutter med tog fra Oslo. Følg storgata fra Lillestrøms sentrum så vill man se plassen på venstre side.
1 week ago

Vi søker nå etter enda en Flyinstruktør med FI-A SEP. Ta kontakt med skolesjefen Øyvind Haarseth. Kontaktinfo finner dere under http://osloflyklubb.org/instruktorer.

LIKE
LOVE
HAHA
WOW
SAD
ANGRY
Metar/TAF Gardermoen:

ENGM 242120Z 13003KT 110V180 5000 -SN BR BKN018 M06/M07 Q1036 TEMPO 2000 -SN BR BKN008

TAF ENGM 241700Z 2418/2518 17005KT 9999 -SN SCT012 BKN018 TEMPO 2418/2420 BKN012 PROB40 TEMPO 2420/2510 3000 -SN BR BKN004